createdAt,value
2018-07-23T03:17:29.711Z,21.39
2018-07-23T03:20:00.785Z,21.40
2018-07-23T03:22:31.750Z,21.38
2018-07-23T03:25:02.803Z,21.38
2018-07-23T03:27:33.702Z,21.37
2018-07-23T03:30:05.032Z,21.39
2018-07-23T03:32:36.341Z,21.39
2018-07-23T03:35:07.400Z,21.44
2018-07-23T03:37:38.606Z,21.45
2018-07-23T03:40:09.705Z,21.45
2018-07-23T03:42:52.258Z,21.45
2018-07-23T03:45:23.608Z,21.44
2018-07-23T03:47:55.186Z,21.40
2018-07-23T03:50:26.326Z,21.41
2018-07-23T03:52:57.594Z,21.39
2018-07-23T03:55:28.464Z,21.37
2018-07-23T03:57:59.749Z,21.33
2018-07-23T04:00:30.698Z,21.30
2018-07-23T04:03:01.672Z,21.35
2018-07-23T04:05:32.672Z,21.36
2018-07-23T04:08:03.766Z,21.37
2018-07-23T04:10:34.783Z,21.33
2018-07-23T04:13:05.742Z,21.36
2018-07-23T04:15:36.577Z,21.34
2018-07-23T04:18:07.634Z,21.35
2018-07-23T04:20:38.564Z,21.34
2018-07-23T04:23:09.570Z,21.35
2018-07-23T04:25:45.621Z,21.31
2018-07-23T04:28:16.906Z,21.32
2018-07-23T04:30:47.961Z,21.32
2018-07-23T04:33:18.891Z,21.28
2018-07-23T04:35:49.960Z,21.30
2018-07-23T04:38:27.114Z,21.26
2018-07-23T04:40:59.393Z,21.24
2018-07-23T04:43:30.319Z,21.21
2018-07-23T04:46:01.330Z,21.18
2018-07-23T04:48:32.319Z,21.17
2018-07-23T04:51:03.695Z,21.17
2018-07-23T04:53:34.904Z,21.17
2018-07-23T04:56:06.806Z,21.12
2018-07-23T04:58:37.497Z,21.14
2018-07-23T05:01:08.719Z,21.17
2018-07-23T05:03:39.608Z,21.16
2018-07-23T05:06:11.265Z,21.19
2018-07-23T05:08:42.443Z,21.18
2018-07-23T05:11:13.685Z,21.17
2018-07-23T05:13:44.729Z,21.18
2018-07-23T05:16:15.751Z,21.18
2018-07-23T05:18:46.683Z,21.11
2018-07-23T05:21:17.679Z,21.14
2018-07-23T05:23:48.642Z,21.16
2018-07-23T05:26:19.776Z,21.21
2018-07-23T05:28:50.800Z,21.23
2018-07-23T05:31:21.712Z,21.24
2018-07-23T05:33:52.639Z,21.25
2018-07-23T05:36:23.661Z,21.25
2018-07-23T05:38:54.734Z,21.18
2018-07-23T05:41:25.996Z,21.17
2018-07-23T05:43:57.326Z,21.18
2018-07-23T05:46:28.198Z,21.20
2018-07-23T05:48:59.144Z,21.20
2018-07-23T05:51:30.304Z,21.22
2018-07-23T05:54:01.391Z,21.12
2018-07-23T05:56:32.452Z,21.01
2018-07-23T05:59:03.398Z,21.04
2018-07-23T06:01:34.630Z,21.12
2018-07-23T06:04:05.746Z,21.19
2018-07-23T06:06:36.701Z,21.37
2018-07-23T06:09:10.106Z,21.43
2018-07-23T06:11:41.148Z,21.52
2018-07-23T06:14:12.153Z,21.54
2018-07-23T06:16:43.212Z,21.65
2018-07-23T06:19:14.374Z,21.73
2018-07-23T06:21:45.702Z,21.76
2018-07-23T06:24:16.654Z,21.94
2018-07-23T06:26:47.613Z,22.26
2018-07-23T06:29:19.530Z,22.57
2018-07-23T06:31:50.462Z,22.90
2018-07-23T06:34:21.406Z,23.06
2018-07-23T06:37:03.000Z,23.31
2018-07-23T06:39:34.451Z,23.77
2018-07-23T06:42:05.400Z,24.06
2018-07-23T06:44:36.392Z,24.30
2018-07-23T06:47:07.818Z,24.46
2018-07-23T06:49:38.813Z,24.84
2018-07-23T06:52:11.661Z,25.16
2018-07-23T06:54:42.746Z,25.44
2018-07-23T06:57:13.793Z,25.67
2018-07-23T06:59:44.798Z,25.56
2018-07-23T07:02:21.327Z,25.84
2018-07-23T07:04:56.834Z,26.01
2018-07-23T07:07:27.785Z,25.83
2018-07-23T07:09:58.893Z,25.52
2018-07-23T07:12:30.505Z,25.64
2018-07-23T07:15:01.725Z,25.73
2018-07-23T07:17:32.603Z,25.70
2018-07-23T07:20:03.506Z,25.43
2018-07-23T07:22:34.403Z,25.31
2018-07-23T07:25:05.295Z,25.69
2018-07-23T07:27:39.218Z,25.96
2018-07-23T07:30:12.593Z,25.83
2018-07-23T07:32:43.714Z,25.97
2018-07-23T07:35:19.426Z,26.06
2018-07-23T07:37:56.433Z,26.43
2018-07-23T07:40:32.100Z,26.72
2018-07-23T07:43:03.108Z,26.64
2018-07-23T07:45:34.282Z,26.91
2018-07-23T07:48:05.664Z,26.99
2018-07-23T07:50:36.669Z,27.10
2018-07-23T07:53:07.699Z,27.35
2018-07-23T07:56:01.384Z,27.36
2018-07-23T08:04:54.563Z,27.91
2018-07-23T08:07:55.888Z,27.78
2018-07-23T08:11:36.610Z,27.79
2018-07-23T08:17:29.884Z,27.53
2018-07-23T08:20:10.070Z,27.78
2018-07-23T08:22:52.216Z,28.24
2018-07-23T08:25:44.299Z,28.20
2018-07-23T08:28:22.969Z,27.98
2018-07-23T08:40:43.819Z,28.94
2018-07-23T08:46:25.550Z,28.49
2018-07-23T08:48:58.778Z,28.99
2018-07-23T08:51:30.608Z,29.46
2018-07-23T08:54:05.677Z,29.25
2018-07-23T08:56:36.922Z,28.85
2018-07-23T08:59:08.718Z,29.05
2018-07-23T09:01:44.070Z,29.23
2018-07-23T09:04:15.796Z,29.46
2018-07-23T09:06:47.362Z,29.48
2018-07-23T09:09:18.309Z,29.62
2018-07-23T09:11:49.232Z,29.42
2018-07-23T09:14:20.257Z,29.02
2018-07-23T09:16:51.242Z,29.20
2018-07-23T09:19:22.147Z,29.54
2018-07-23T09:21:53.618Z,29.73
2018-07-23T09:24:24.529Z,30.08
2018-07-23T09:26:58.537Z,30.06
2018-07-23T09:29:30.474Z,29.73
2018-07-23T09:32:04.918Z,29.52
2018-07-23T09:34:38.282Z,29.60
2018-07-23T09:37:12.443Z,29.35
2018-07-23T09:39:44.012Z,29.26
2018-07-23T09:42:15.306Z,28.85
2018-07-23T09:44:46.315Z,28.75
2018-07-23T09:47:20.872Z,28.77
2018-07-23T09:49:53.939Z,29.16
2018-07-23T09:52:25.580Z,29.23
2018-07-23T09:54:56.467Z,29.42
2018-07-23T09:57:27.487Z,29.24
2018-07-23T10:00:02.398Z,28.96
2018-07-23T10:06:42.157Z,28.91
2018-07-23T10:09:23.377Z,28.47
2018-07-23T10:12:09.961Z,28.60
2018-07-23T10:14:45.353Z,28.21
2018-07-23T10:17:17.151Z,28.53
2018-07-23T10:19:47.982Z,28.82
2018-07-23T10:22:27.165Z,29.25
2018-07-23T10:24:58.073Z,29.22
2018-07-23T10:27:29.174Z,28.87
2018-07-23T10:30:11.930Z,28.75
2018-07-23T10:32:47.584Z,29.00
2018-07-23T10:35:19.141Z,29.24
2018-07-23T10:37:50.020Z,29.16
2018-07-23T10:40:21.086Z,29.06
2018-07-23T10:42:51.981Z,28.62
2018-07-23T10:45:25.532Z,28.35
2018-07-23T10:47:57.074Z,28.43
2018-07-23T10:50:28.334Z,28.54
2018-07-23T10:52:59.569Z,28.64
2018-07-23T10:55:34.720Z,29.02
2018-07-23T10:58:05.793Z,29.08
2018-07-23T11:00:36.722Z,29.20
2018-07-23T11:03:08.057Z,29.36
2018-07-23T11:05:39.034Z,29.56
2018-07-23T11:08:10.062Z,29.52
2018-07-23T11:10:41.073Z,29.91
2018-07-23T11:13:11.953Z,30.16
2018-07-23T11:18:36.960Z,30.93
2018-07-23T11:21:08.307Z,30.65
2018-07-23T11:23:39.302Z,30.48
2018-07-23T11:26:10.281Z,30.02
2018-07-23T11:28:41.078Z,29.41
2018-07-23T11:31:12.325Z,29.17
2018-07-23T11:33:43.276Z,28.43
2018-07-23T11:36:18.637Z,28.04
2018-07-23T11:38:49.721Z,28.18
2018-07-23T11:41:26.098Z,28.51
2018-07-23T11:44:01.433Z,28.59
2018-07-23T11:46:34.089Z,28.57
2018-07-23T11:49:06.119Z,28.38
2018-07-23T11:51:38.157Z,28.56
2018-07-23T11:54:09.628Z,28.51
2018-07-23T11:56:40.908Z,28.33
2018-07-23T11:59:12.145Z,28.34
2018-07-23T12:01:43.078Z,28.44
2018-07-23T12:04:14.958Z,28.69
2018-07-23T12:06:46.045Z,28.75
2018-07-23T12:09:17.003Z,28.93
2018-07-23T12:11:50.050Z,28.96
2018-07-23T12:14:22.827Z,29.15
2018-07-23T12:17:00.519Z,29.07
2018-07-23T12:19:34.328Z,28.89
2018-07-23T12:22:05.281Z,28.80
2018-07-23T12:24:39.102Z,29.16
2018-07-23T12:27:11.821Z,29.37
2018-07-23T12:29:42.809Z,29.38
2018-07-23T12:32:18.011Z,29.30
2018-07-23T12:34:51.564Z,29.26
2018-07-23T12:37:25.752Z,29.47
2018-07-23T12:39:57.569Z,29.65
2018-07-23T12:42:31.380Z,29.69
2018-07-23T12:45:04.277Z,29.89
2018-07-23T12:47:43.428Z,29.86
2018-07-23T12:50:14.408Z,30.02
2018-07-23T12:52:46.337Z,29.99
2018-07-23T12:55:17.776Z,30.06
2018-07-23T12:57:48.726Z,30.09
2018-07-23T13:00:20.013Z,30.14
2018-07-23T13:02:50.907Z,30.26
2018-07-23T13:05:25.792Z,30.23
2018-07-23T13:07:58.202Z,30.14
2018-07-23T13:10:34.468Z,29.84
2018-07-23T13:13:06.897Z,29.91
2018-07-23T13:15:39.148Z,29.86
2018-07-23T13:18:16.162Z,29.91
2018-07-23T13:20:47.278Z,29.80
2018-07-23T13:23:18.336Z,29.68
2018-07-23T13:25:51.988Z,29.73
2018-07-23T13:28:23.788Z,29.81
2018-07-23T13:30:55.649Z,29.78
2018-07-23T13:33:26.747Z,29.79
2018-07-23T13:35:58.659Z,29.99
2018-07-23T13:38:29.909Z,30.14
2018-07-23T13:41:01.029Z,30.17
2018-07-23T13:43:41.539Z,30.28
2018-07-23T13:46:23.235Z,30.38
2018-07-23T13:48:54.468Z,30.56
2018-07-23T13:51:25.885Z,30.65
2018-07-23T13:53:56.928Z,30.70
2018-07-23T13:56:34.342Z,30.66
2018-07-23T13:59:05.344Z,30.67
2018-07-23T14:01:36.612Z,30.73
2018-07-23T14:04:07.692Z,30.61
2018-07-23T14:06:38.667Z,30.47
2018-07-23T14:09:11.913Z,30.32
2018-07-23T14:11:43.248Z,30.31
2018-07-23T14:14:14.201Z,30.43
2018-07-23T14:16:45.111Z,30.46
2018-07-23T14:19:18.595Z,30.49
2018-07-23T14:21:49.606Z,30.22
2018-07-23T14:24:20.519Z,30.11
2018-07-23T14:26:51.557Z,30.10
2018-07-23T14:29:22.970Z,30.34
2018-07-23T14:31:54.095Z,30.37
2018-07-23T14:34:24.979Z,30.22
2018-07-23T14:36:56.066Z,30.14
2018-07-23T14:39:26.978Z,30.07
2018-07-23T14:41:58.101Z,29.88
2018-07-23T14:44:29.274Z,29.90
2018-07-23T14:47:02.847Z,30.00
2018-07-23T14:49:33.724Z,30.16
2018-07-23T14:52:06.754Z,30.17
2018-07-23T14:54:37.687Z,30.21
2018-07-23T14:57:09.063Z,30.23
2018-07-23T14:59:40.060Z,30.17
2018-07-23T15:02:11.024Z,30.21
2018-07-23T15:04:41.960Z,30.43
2018-07-23T15:07:12.879Z,30.58
2018-07-23T15:09:44.076Z,30.71
2018-07-23T15:12:15.767Z,30.76
2018-07-23T15:14:46.677Z,30.75
2018-07-23T15:17:17.985Z,30.86
2018-07-23T15:19:49.603Z,30.92
2018-07-23T15:22:20.976Z,30.95
2018-07-23T15:24:51.896Z,30.98
2018-07-23T15:27:22.800Z,30.79
2018-07-23T15:29:53.796Z,30.40
2018-07-23T15:32:24.734Z,30.38
2018-07-23T15:35:01.281Z,30.23
2018-07-23T15:37:32.241Z,30.26
2018-07-23T15:40:03.275Z,30.10
2018-07-23T15:42:34.229Z,30.22
2018-07-23T15:45:05.308Z,30.34
2018-07-23T15:47:36.581Z,30.45
2018-07-23T15:50:07.474Z,30.38
2018-07-23T15:52:39.136Z,30.51
2018-07-23T15:55:10.562Z,30.51
2018-07-23T15:57:41.479Z,30.41
2018-07-23T16:00:12.586Z,30.36
2018-07-23T16:02:43.557Z,30.23
2018-07-23T16:05:14.546Z,30.26
2018-07-23T16:07:45.455Z,30.42
2018-07-23T16:10:16.377Z,30.47
2018-07-23T16:12:47.368Z,30.45
2018-07-23T16:15:18.452Z,30.45
2018-07-23T16:17:49.742Z,30.44
2018-07-23T16:20:22.875Z,30.32
2018-07-23T16:22:54.182Z,30.32
2018-07-23T16:25:25.073Z,30.35
2018-07-23T16:27:55.975Z,30.32
2018-07-23T16:30:27.225Z,30.31
2018-07-23T16:32:58.171Z,30.30
2018-07-23T16:35:29.467Z,30.28
2018-07-23T16:38:00.755Z,30.11
2018-07-23T16:40:32.042Z,30.20
2018-07-23T16:43:02.927Z,30.09
2018-07-23T16:45:33.784Z,30.11
2018-07-23T16:50:58.866Z,30.30
2018-07-23T16:53:29.782Z,30.22
2018-07-23T16:56:02.285Z,30.30
2018-07-23T16:58:33.584Z,30.33
2018-07-23T17:01:05.118Z,30.31
2018-07-23T17:03:36.237Z,30.31
2018-07-23T17:06:07.752Z,30.28
2018-07-23T17:08:39.591Z,30.22
2018-07-23T17:11:11.362Z,30.20
2018-07-23T17:13:42.560Z,30.24
2018-07-23T17:16:13.756Z,30.19
2018-07-23T17:18:44.661Z,30.23
2018-07-23T17:21:15.576Z,30.27
2018-07-23T17:23:46.688Z,30.25
2018-07-23T17:26:17.909Z,30.29
2018-07-23T17:28:49.186Z,30.26
2018-07-23T17:31:22.813Z,30.22
2018-07-23T17:33:54.085Z,30.16
2018-07-23T17:36:24.992Z,30.11
2018-07-23T17:39:02.298Z,30.07
2018-07-23T17:41:33.237Z,29.96
2018-07-23T17:44:06.012Z,29.86
2018-07-23T17:46:37.285Z,29.80
2018-07-23T17:49:08.247Z,29.78
2018-07-23T17:51:39.236Z,29.80
2018-07-23T17:54:10.309Z,29.78
2018-07-23T17:56:41.805Z,29.79
2018-07-23T17:59:12.734Z,29.82
2018-07-23T18:01:43.767Z,29.85
2018-07-23T18:04:15.966Z,29.85
2018-07-23T18:06:55.764Z,29.81
2018-07-23T18:09:26.910Z,29.70
2018-07-23T18:11:57.810Z,29.67
2018-07-23T18:14:29.278Z,29.51
2018-07-23T18:17:00.204Z,29.77
2018-07-23T18:19:31.222Z,29.75
2018-07-23T18:22:02.256Z,29.64
2018-07-23T18:24:33.166Z,29.59
2018-07-23T18:27:08.089Z,29.60
2018-07-23T18:29:39.586Z,29.61
2018-07-23T18:32:12.263Z,29.59
2018-07-23T18:34:43.387Z,29.54
2018-07-23T18:37:16.172Z,29.44
2018-07-23T18:39:47.239Z,29.36
2018-07-23T18:42:23.146Z,29.34
2018-07-23T18:44:54.065Z,29.26
2018-07-23T18:47:25.248Z,29.23
2018-07-23T18:49:59.051Z,29.23
2018-07-23T18:52:31.268Z,29.24
2018-07-23T18:55:03.821Z,29.24
2018-07-23T18:57:34.708Z,29.27
2018-07-23T19:00:06.933Z,29.31
2018-07-23T19:02:37.940Z,29.30
2018-07-23T19:05:09.560Z,29.29
2018-07-23T19:07:41.133Z,29.25
2018-07-23T19:10:19.678Z,29.21
2018-07-23T19:12:50.884Z,29.16
2018-07-23T19:15:21.858Z,29.15
2018-07-23T19:17:52.434Z,29.12
2018-07-23T19:20:32.708Z,29.07
2018-07-23T19:23:05.554Z,29.06
2018-07-23T19:25:36.636Z,29.02
2018-07-23T19:28:08.217Z,28.96
2018-07-23T19:30:39.283Z,28.90
2018-07-23T19:33:13.677Z,28.88
2018-07-23T19:35:45.718Z,28.77
2018-07-23T19:38:16.807Z,28.69
2018-07-23T19:43:34.712Z,28.50
2018-07-23T19:46:06.303Z,28.49
2018-07-23T19:48:38.079Z,28.44
2018-07-23T19:51:10.659Z,28.35
2018-07-23T19:53:42.097Z,28.27
2018-07-23T19:56:14.575Z,28.26
2018-07-23T19:58:46.929Z,28.25
2018-07-23T20:01:19.531Z,28.21
2018-07-23T20:03:50.958Z,28.12
2018-07-23T20:06:27.543Z,28.09
2018-07-23T20:08:59.384Z,27.97
2018-07-23T20:11:30.807Z,27.87
2018-07-23T20:14:02.807Z,27.74
2018-07-23T20:16:34.248Z,27.68
2018-07-23T20:19:05.251Z,27.67
2018-07-23T20:21:36.166Z,27.68
2018-07-23T20:24:07.400Z,27.62
2018-07-23T20:26:38.334Z,27.57
2018-07-23T20:29:09.678Z,27.43
2018-07-23T20:31:40.699Z,27.38
2018-07-23T20:34:11.713Z,27.33
2018-07-23T20:36:42.626Z,27.26
2018-07-23T20:39:13.563Z,27.19
2018-07-23T20:41:44.691Z,27.21
2018-07-23T20:44:15.639Z,27.17
2018-07-23T20:46:46.745Z,27.13
2018-07-23T20:49:17.676Z,27.01
2018-07-23T20:51:48.613Z,27.04
2018-07-23T20:54:19.508Z,27.07
2018-07-23T20:56:56.194Z,27.08
2018-07-23T20:59:28.894Z,27.10
2018-07-23T21:02:01.030Z,26.97
2018-07-23T21:04:32.162Z,26.80
2018-07-23T21:07:03.117Z,26.68
2018-07-23T21:09:34.108Z,26.58
2018-07-23T21:12:05.005Z,26.44
2018-07-23T21:14:36.619Z,26.37
2018-07-23T21:17:07.714Z,26.38
2018-07-23T21:19:38.901Z,26.32
2018-07-23T21:22:12.345Z,26.31
2018-07-23T21:24:44.405Z,26.34
2018-07-23T21:27:31.306Z,26.34
2018-07-23T21:30:06.353Z,26.31
2018-07-23T21:32:37.397Z,26.35
2018-07-23T21:35:08.514Z,26.29
2018-07-23T21:37:39.786Z,26.31
2018-07-23T21:40:11.588Z,26.33
2018-07-23T21:42:42.602Z,26.35
2018-07-23T21:45:13.682Z,26.35
2018-07-23T21:47:45.381Z,26.33
2018-07-23T21:50:16.346Z,26.34
2018-07-23T21:52:47.548Z,26.33
2018-07-23T21:55:18.913Z,26.30
2018-07-23T21:57:50.169Z,26.33
2018-07-23T22:00:21.180Z,26.31
2018-07-23T22:02:56.034Z,26.30
2018-07-23T22:05:27.522Z,26.28
2018-07-23T22:07:58.495Z,26.28
2018-07-23T22:10:29.811Z,26.22
2018-07-23T22:13:00.757Z,26.11
2018-07-23T22:15:31.893Z,25.95
2018-07-23T22:18:04.054Z,25.75
2018-07-23T22:20:35.235Z,25.54
2018-07-23T22:23:06.781Z,25.30
2018-07-23T22:25:38.087Z,25.11
2018-07-23T22:28:09.388Z,25.08
2018-07-23T22:30:40.242Z,25.09
2018-07-23T22:33:11.167Z,25.07
2018-07-23T22:35:52.677Z,25.02
2018-07-23T22:38:25.166Z,25.02
2018-07-23T22:40:59.754Z,25.08
2018-07-23T22:46:52.740Z,24.96
2018-07-23T22:49:24.261Z,24.86
2018-07-23T22:51:56.015Z,24.81
2018-07-23T22:54:28.549Z,24.73
2018-07-23T22:57:00.015Z,24.66
2018-07-23T22:59:30.885Z,24.58
2018-07-23T23:02:03.464Z,24.48
2018-07-23T23:04:34.426Z,24.49
2018-07-23T23:07:05.851Z,24.45
2018-07-23T23:09:38.442Z,24.41
2018-07-23T23:12:10.193Z,24.38
2018-07-23T23:14:54.005Z,24.31
2018-07-23T23:17:25.873Z,24.22
2018-07-23T23:19:56.783Z,24.14
2018-07-23T23:22:27.695Z,24.10
2018-07-23T23:24:58.353Z,24.01
2018-07-23T23:27:29.331Z,24.04
2018-07-23T23:30:00.736Z,24.01
2018-07-23T23:32:31.531Z,24.02
2018-07-23T23:35:02.841Z,24.00
2018-07-23T23:37:34.082Z,24.05
2018-07-23T23:40:05.089Z,23.99
2018-07-23T23:42:35.979Z,23.91
2018-07-23T23:45:07.206Z,23.80
2018-07-23T23:47:38.138Z,23.72
2018-07-23T23:50:09.052Z,23.72
2018-07-23T23:52:39.983Z,23.73
2018-07-23T23:55:11.243Z,23.76
2018-07-23T23:57:42.283Z,23.74
